sensor_id;sensor_type;location;lat;lon;timestamp;P1;durP1;ratioP1;P2;durP2;ratioP2
15356;SDS011;7778;48.792;9.260;2023-04-01T00:02:20;1.10;;;0.30;;
15356;SDS011;7778;48.792;9.260;2023-04-01T00:05:06;0.25;;;0.25;;
15356;SDS011;7778;48.792;9.260;2023-04-01T00:07:54;0.20;;;0.20;;
15356;SDS011;7778;48.792;9.260;2023-04-01T00:10:41;2.65;;;0.57;;
15356;SDS011;7778;48.792;9.260;2023-04-01T00:13:27;1.70;;;0.30;;
15356;SDS011;7778;48.792;9.260;2023-04-01T00:16:13;0.10;;;0.10;;
15356;SDS011;7778;48.792;9.260;2023-04-01T00:18:59;0.40;;;0.40;;
15356;SDS011;7778;48.792;9.260;2023-04-01T00:21:45;1.77;;;0.47;;
15356;SDS011;7778;48.792;9.260;2023-04-01T00:24:31;1.10;;;0.52;;
15356;SDS011;7778;48.792;9.260;2023-04-01T00:27:18;1.58;;;0.50;;
15356;SDS011;7778;48.792;9.260;2023-04-01T00:30:05;0.85;;;0.30;;
15356;SDS011;7778;48.792;9.260;2023-04-01T00:32:52;0.35;;;0.22;;
15356;SDS011;7778;48.792;9.260;2023-04-01T00:35:38;1.23;;;0.43;;
15356;SDS011;7778;48.792;9.260;2023-04-01T00:38:26;0.60;;;0.40;;
15356;SDS011;7778;48.792;9.260;2023-04-01T00:41:12;1.40;;;0.47;;
15356;SDS011;7778;48.792;9.260;2023-04-01T00:44:16;2.55;;;0.90;;
15356;SDS011;7778;48.792;9.260;2023-04-01T00:47:04;5.72;;;0.50;;
15356;SDS011;7778;48.792;9.260;2023-04-01T00:49:51;4.20;;;0.60;;
15356;SDS011;7778;48.792;9.260;2023-04-01T00:52:39;2.88;;;0.77;;
15356;SDS011;7778;48.792;9.260;2023-04-01T00:55:26;1.40;;;0.60;;
15356;SDS011;7778;48.792;9.260;2023-04-01T00:58:16;1.98;;;0.52;;
15356;SDS011;7778;48.792;9.260;2023-04-01T01:01:08;1.45;;;0.30;;
15356;SDS011;7778;48.792;9.260;2023-04-01T01:03:54;3.05;;;0.50;;
15356;SDS011;7778;48.792;9.260;2023-04-01T01:06:43;0.22;;;0.22;;
15356;SDS011;7778;48.792;9.260;2023-04-01T01:09:38;0.32;;;0.28;;
15356;SDS011;7778;48.792;9.260;2023-04-01T01:12:31;0.40;;;0.40;;
15356;SDS011;7778;48.792;9.260;2023-04-01T01:15:25;0.88;;;0.40;;
15356;SDS011;7778;48.792;9.260;2023-04-01T01:18:18;2.20;;;0.35;;
15356;SDS011;7778;48.792;9.260;2023-04-01T01:21:16;2.50;;;0.73;;
15356;SDS011;7778;48.792;9.260;2023-04-01T01:24:36;1.45;;;0.25;;
15356;SDS011;7778;48.792;9.260;2023-04-01T01:27:36;0.63;;;0.40;;
15356;SDS011;7778;48.792;9.260;2023-04-01T01:30:28;0.20;;;0.20;;
15356;SDS011;7778;48.792;9.260;2023-04-01T01:33:25;1.25;;;0.35;;
15356;SDS011;7778;48.792;9.260;2023-04-01T01:36:37;0.28;;;0.28;;
15356;SDS011;7778;48.792;9.260;2023-04-01T01:39:26;2.45;;;0.38;;
15356;SDS011;7778;48.792;9.260;2023-04-01T01:42:15;1.02;;;0.22;;
15356;SDS011;7778;48.792;9.260;2023-04-01T01:45:04;1.42;;;0.47;;
15356;SDS011;7778;48.792;9.260;2023-04-01T01:47:52;1.00;;;0.30;;
15356;SDS011;7778;48.792;9.260;2023-04-01T01:50:41;1.60;;;0.40;;
15356;SDS011;7778;48.792;9.260;2023-04-01T01:53:31;1.08;;;0.20;;
15356;SDS011;7778;48.792;9.260;2023-04-01T01:56:16;0.35;;;0.28;;
15356;SDS011;7778;48.792;9.260;2023-04-01T01:59:08;3.35;;;0.88;;
15356;SDS011;7778;48.792;9.260;2023-04-01T02:01:56;2.53;;;0.50;;
15356;SDS011;7778;48.792;9.260;2023-04-01T02:04:43;1.75;;;0.45;;
15356;SDS011;7778;48.792;9.260;2023-04-01T02:07:31;2.40;;;0.82;;
15356;SDS011;7778;48.792;9.260;2023-04-01T02:10:22;0.20;;;0.10;;
15356;SDS011;7778;48.792;9.260;2023-04-01T02:13:12;0.10;;;0.10;;
15356;SDS011;7778;48.792;9.260;2023-04-01T02:16:03;1.58;;;0.35;;
15356;SDS011;7778;48.792;9.260;2023-04-01T02:18:57;1.83;;;0.70;;
15356;SDS011;7778;48.792;9.260;2023-04-01T02:21:44;1.70;;;0.32;;
15356;SDS011;7778;48.792;9.260;2023-04-01T02:24:31;0.75;;;0.28;;
15356;SDS011;7778;48.792;9.260;2023-04-01T02:27:21;2.20;;;0.35;;
15356;SDS011;7778;48.792;9.260;2023-04-01T02:30:07;2.65;;;0.50;;
15356;SDS011;7778;48.792;9.260;2023-04-01T02:32:54;2.08;;;0.35;;
15356;SDS011;7778;48.792;9.260;2023-04-01T02:35:41;1.10;;;0.70;;
15356;SDS011;7778;48.792;9.260;2023-04-01T02:38:27;1.45;;;0.25;;
15356;SDS011;7778;48.792;9.260;2023-04-01T02:41:12;0.22;;;0.22;;
15356;SDS011;7778;48.792;9.260;2023-04-01T02:44:00;0.20;;;0.15;;
15356;SDS011;7778;48.792;9.260;2023-04-01T02:46:46;1.23;;;0.32;;
15356;SDS011;7778;48.792;9.260;2023-04-01T02:49:32;0.00;;;0.00;;
15356;SDS011;7778;48.792;9.260;2023-04-01T02:52:17;0.70;;;0.10;;
15356;SDS011;7778;48.792;9.260;2023-04-01T02:55:03;0.70;;;0.40;;
15356;SDS011;7778;48.792;9.260;2023-04-01T02:57:51;2.42;;;0.45;;
15356;SDS011;7778;48.792;9.260;2023-04-01T03:00:38;0.45;;;0.10;;
15356;SDS011;7778;48.792;9.260;2023-04-01T03:03:23;2.17;;;0.35;;
15356;SDS011;7778;48.792;9.260;2023-04-01T03:06:10;0.10;;;0.10;;
15356;SDS011;7778;48.792;9.260;2023-04-01T03:08:58;1.30;;;0.20;;
15356;SDS011;7778;48.792;9.260;2023-04-01T03:11:44;0.10;;;0.00;;
15356;SDS011;7778;48.792;9.260;2023-04-01T03:14:29;1.67;;;0.45;;
15356;SDS011;7778;48.792;9.260;2023-04-01T03:17:16;0.52;;;0.30;;
15356;SDS011;7778;48.792;9.260;2023-04-01T03:20:02;0.17;;;0.13;;
15356;SDS011;7778;48.792;9.260;2023-04-01T03:22:49;0.00;;;0.00;;
15356;SDS011;7778;48.792;9.260;2023-04-01T03:25:34;0.30;;;0.00;;
15356;SDS011;7778;48.792;9.260;2023-04-01T03:28:20;0.15;;;0.15;;
15356;SDS011;7778;48.792;9.260;2023-04-01T03:31:06;0.90;;;0.30;;
15356;SDS011;7778;48.792;9.260;2023-04-01T03:33:53;0.75;;;0.22;;
15356;SDS011;7778;48.792;9.260;2023-04-01T03:36:38;2.90;;;0.28;;
15356;SDS011;7778;48.792;9.260;2023-04-01T03:39:24;0.10;;;0.10;;
15356;SDS011;7778;48.792;9.260;2023-04-01T03:42:09;0.25;;;0.13;;
15356;SDS011;7778;48.792;9.260;2023-04-01T03:44:55;0.43;;;0.40;;
15356;SDS011;7778;48.792;9.260;2023-04-01T03:47:41;0.10;;;0.10;;
15356;SDS011;7778;48.792;9.260;2023-04-01T03:50:28;0.20;;;0.20;;
15356;SDS011;7778;48.792;9.260;2023-04-01T03:53:13;1.45;;;0.40;;
15356;SDS011;7778;48.792;9.260;2023-04-01T03:56:02;1.40;;;0.40;;
15356;SDS011;7778;48.792;9.260;2023-04-01T03:58:49;0.00;;;0.00;;
15356;SDS011;7778;48.792;9.260;2023-04-01T04:01:35;2.35;;;0.30;;
15356;SDS011;7778;48.792;9.260;2023-04-01T04:04:21;2.17;;;0.43;;
15356;SDS011;7778;48.792;9.260;2023-04-01T04:07:07;2.45;;;0.52;;
15356;SDS011;7778;48.792;9.260;2023-04-01T04:09:53;2.22;;;0.40;;
15356;SDS011;7778;48.792;9.260;2023-04-01T04:12:38;0.77;;;0.20;;
15356;SDS011;7778;48.792;9.260;2023-04-01T04:15:24;0.10;;;0.10;;
15356;SDS011;7778;48.792;9.260;2023-04-01T04:18:10;1.23;;;0.55;;
15356;SDS011;7778;48.792;9.260;2023-04-01T04:20:55;0.08;;;0.08;;
15356;SDS011;7778;48.792;9.260;2023-04-01T04:23:42;0.47;;;0.20;;
15356;SDS011;7778;48.792;9.260;2023-04-01T04:26:28;0.65;;;0.25;;
15356;SDS011;7778;48.792;9.260;2023-04-01T04:29:13;0.38;;;0.30;;
15356;SDS011;7778;48.792;9.260;2023-04-01T04:31:59;0.20;;;0.20;;
15356;SDS011;7778;48.792;9.260;2023-04-01T04:34:45;0.63;;;0.22;;
15356;SDS011;7778;48.792;9.260;2023-04-01T04:37:30;0.03;;;0.03;;
15356;SDS011;7778;48.792;9.260;2023-04-01T04:40:17;0.65;;;0.30;;
15356;SDS011;7778;48.792;9.260;2023-04-01T04:43:03;0.25;;;0.10;;
15356;SDS011;7778;48.792;9.260;2023-04-01T04:45:49;0.57;;;0.10;;
15356;SDS011;7778;48.792;9.260;2023-04-01T04:48:36;0.28;;;0.15;;
15356;SDS011;7778;48.792;9.260;2023-04-01T04:51:22;0.65;;;0.20;;
15356;SDS011;7778;48.792;9.260;2023-04-01T04:54:08;1.23;;;0.22;;
15356;SDS011;7778;48.792;9.260;2023-04-01T04:56:55;2.25;;;0.20;;
15356;SDS011;7778;48.792;9.260;2023-04-01T04:59:41;0.30;;;0.13;;
15356;SDS011;7778;48.792;9.260;2023-04-01T05:02:27;3.40;;;0.45;;
15356;SDS011;7778;48.792;9.260;2023-04-01T05:05:14;1.85;;;0.00;;
15356;SDS011;7778;48.792;9.260;2023-04-01T05:08:00;0.70;;;0.10;;
15356;SDS011;7778;48.792;9.260;2023-04-01T05:10:46;0.93;;;0.20;;
15356;SDS011;7778;48.792;9.260;2023-04-01T05:13:33;0.30;;;0.10;;
15356;SDS011;7778;48.792;9.260;2023-04-01T05:16:19;0.17;;;0.15;;
15356;SDS011;7778;48.792;9.260;2023-04-01T05:19:05;2.25;;;0.93;;
15356;SDS011;7778;48.792;9.260;2023-04-01T05:21:50;1.58;;;0.43;;
15356;SDS011;7778;48.792;9.260;2023-04-01T05:24:36;4.13;;;0.50;;
15356;SDS011;7778;48.792;9.260;2023-04-01T05:27:22;1.73;;;0.08;;
15356;SDS011;7778;48.792;9.260;2023-04-01T05:30:10;0.50;;;0.30;;
15356;SDS011;7778;48.792;9.260;2023-04-01T05:32:56;3.60;;;1.13;;
15356;SDS011;7778;48.792;9.260;2023-04-01T05:35:42;1.60;;;0.55;;
15356;SDS011;7778;48.792;9.260;2023-04-01T05:38:27;2.22;;;0.73;;
15356;SDS011;7778;48.792;9.260;2023-04-01T05:41:13;1.38;;;0.68;;
15356;SDS011;7778;48.792;9.260;2023-04-01T05:44:00;0.82;;;0.57;;
15356;SDS011;7778;48.792;9.260;2023-04-01T05:46:47;1.08;;;0.30;;
15356;SDS011;7778;48.792;9.260;2023-04-01T05:49:32;1.02;;;0.30;;
15356;SDS011;7778;48.792;9.260;2023-04-01T05:52:18;1.70;;;0.57;;
15356;SDS011;7778;48.792;9.260;2023-04-01T05:55:04;2.88;;;0.50;;
15356;SDS011;7778;48.792;9.260;2023-04-01T05:57:51;1.52;;;0.22;;
15356;SDS011;7778;48.792;9.260;2023-04-01T06:00:37;0.93;;;0.40;;
15356;SDS011;7778;48.792;9.260;2023-04-01T06:03:24;0.40;;;0.30;;
15356;SDS011;7778;48.792;9.260;2023-04-01T06:06:11;1.95;;;0.68;;
15356;SDS011;7778;48.792;9.260;2023-04-01T06:09:05;0.90;;;0.22;;
15356;SDS011;7778;48.792;9.260;2023-04-01T06:12:06;1.35;;;0.52;;
15356;SDS011;7778;48.792;9.260;2023-04-01T06:15:25;0.03;;;0.03;;
15356;SDS011;7778;48.792;9.260;2023-04-01T06:21:39;2.17;;;0.43;;
15356;SDS011;7778;48.792;9.260;2023-04-01T06:24:43;2.22;;;0.60;;
15356;SDS011;7778;48.792;9.260;2023-04-01T06:27:51;0.38;;;0.30;;
15356;SDS011;7778;48.792;9.260;2023-04-01T06:30:51;0.45;;;0.25;;
15356;SDS011;7778;48.792;9.260;2023-04-01T06:33:53;3.22;;;0.45;;
15356;SDS011;7778;48.792;9.260;2023-04-01T06:36:59;1.70;;;0.60;;
15356;SDS011;7778;48.792;9.260;2023-04-01T06:43:26;0.20;;;0.20;;
15356;SDS011;7778;48.792;9.260;2023-04-01T06:46:26;0.20;;;0.10;;
15356;SDS011;7778;48.792;9.260;2023-04-01T06:49:28;1.55;;;0.43;;
15356;SDS011;7778;48.792;9.260;2023-04-01T06:52:26;4.05;;;0.60;;
15356;SDS011;7778;48.792;9.260;2023-04-01T06:55:26;0.43;;;0.00;;
15356;SDS011;7778;48.792;9.260;2023-04-01T06:58:19;0.68;;;0.20;;
15356;SDS011;7778;48.792;9.260;2023-04-01T07:01:07;2.22;;;1.00;;
15356;SDS011;7778;48.792;9.260;2023-04-01T07:03:58;1.08;;;0.22;;
15356;SDS011;7778;48.792;9.260;2023-04-01T07:06:48;4.65;;;0.28;;
15356;SDS011;7778;48.792;9.260;2023-04-01T07:09:39;1.13;;;0.47;;
15356;SDS011;7778;48.792;9.260;2023-04-01T07:12:33;0.75;;;0.20;;
15356;SDS011;7778;48.792;9.260;2023-04-01T07:15:29;2.97;;;0.13;;
15356;SDS011;7778;48.792;9.260;2023-04-01T07:18:21;0.52;;;0.17;;
15356;SDS011;7778;48.792;9.260;2023-04-01T07:21:19;4.22;;;0.40;;
15356;SDS011;7778;48.792;9.260;2023-04-01T07:24:12;0.63;;;0.22;;
15356;SDS011;7778;48.792;9.260;2023-04-01T07:27:08;0.60;;;0.20;;
15356;SDS011;7778;48.792;9.260;2023-04-01T07:29:56;1.77;;;0.40;;
15356;SDS011;7778;48.792;9.260;2023-04-01T07:32:44;0.10;;;0.10;;
15356;SDS011;7778;48.792;9.260;2023-04-01T07:35:35;1.75;;;0.52;;
15356;SDS011;7778;48.792;9.260;2023-04-01T07:38:30;0.63;;;0.22;;
15356;SDS011;7778;48.792;9.260;2023-04-01T07:41:29;1.10;;;0.65;;
15356;SDS011;7778;48.792;9.260;2023-04-01T07:44:28;0.10;;;0.10;;
15356;SDS011;7778;48.792;9.260;2023-04-01T07:47:34;2.58;;;0.70;;
15356;SDS011;7778;48.792;9.260;2023-04-01T07:50:41;1.20;;;0.10;;
15356;SDS011;7778;48.792;9.260;2023-04-01T07:53:38;1.40;;;0.50;;
15356;SDS011;7778;48.792;9.260;2023-04-01T07:56:34;0.75;;;0.25;;
15356;SDS011;7778;48.792;9.260;2023-04-01T07:59:28;0.73;;;0.30;;
15356;SDS011;7778;48.792;9.260;2023-04-01T08:02:25;0.20;;;0.17;;
15356;SDS011;7778;48.792;9.260;2023-04-01T08:05:29;1.42;;;0.40;;
15356;SDS011;7778;48.792;9.260;2023-04-01T08:08:27;0.22;;;0.15;;
15356;SDS011;7778;48.792;9.260;2023-04-01T08:11:27;2.20;;;0.20;;
15356;SDS011;7778;48.792;9.260;2023-04-01T08:14:30;0.65;;;0.20;;
15356;SDS011;7778;48.792;9.260;2023-04-01T08:17:26;0.20;;;0.20;;
15356;SDS011;7778;48.792;9.260;2023-04-01T08:20:20;0.45;;;0.15;;
15356;SDS011;7778;48.792;9.260;2023-04-01T08:23:14;11.80;;;0.75;;
15356;SDS011;7778;48.792;9.260;2023-04-01T08:26:05;0.60;;;0.47;;
15356;SDS011;7778;48.792;9.260;2023-04-01T08:28:59;1.40;;;0.50;;
15356;SDS011;7778;48.792;9.260;2023-04-01T08:31:49;0.85;;;0.35;;
15356;SDS011;7778;48.792;9.260;2023-04-01T08:34:40;1.58;;;0.30;;
15356;SDS011;7778;48.792;9.260;2023-04-01T08:37:31;0.43;;;0.17;;
15356;SDS011;7778;48.792;9.260;2023-04-01T08:47:32;0.43;;;0.22;;
15356;SDS011;7778;48.792;9.260;2023-04-01T08:50:50;0.50;;;0.50;;
15356;SDS011;7778;48.792;9.260;2023-04-01T08:53:58;0.30;;;0.28;;
15356;SDS011;7778;48.792;9.260;2023-04-01T08:57:00;0.30;;;0.15;;
15356;SDS011;7778;48.792;9.260;2023-04-01T08:59:57;1.52;;;0.50;;
15356;SDS011;7778;48.792;9.260;2023-04-01T09:06:39;1.13;;;0.32;;
15356;SDS011;7778;48.792;9.260;2023-04-01T09:09:39;0.10;;;0.10;;
15356;SDS011;7778;48.792;9.260;2023-04-01T09:12:54;0.50;;;0.30;;
15356;SDS011;7778;48.792;9.260;2023-04-01T09:16:02;1.33;;;0.40;;
15356;SDS011;7778;48.792;9.260;2023-04-01T09:22:38;0.28;;;0.13;;
15356;SDS011;7778;48.792;9.260;2023-04-01T09:25:38;0.90;;;0.30;;
15356;SDS011;7778;48.792;9.260;2023-04-01T09:28:38;0.10;;;0.10;;
15356;SDS011;7778;48.792;9.260;2023-04-01T09:35:10;0.30;;;0.22;;
15356;SDS011;7778;48.792;9.260;2023-04-01T09:38:20;0.52;;;0.20;;
15356;SDS011;7778;48.792;9.260;2023-04-01T09:41:11;1.60;;;0.55;;
15356;SDS011;7778;48.792;9.260;2023-04-01T09:44:14;1.45;;;0.20;;
15356;SDS011;7778;48.792;9.260;2023-04-01T09:47:10;0.20;;;0.20;;
15356;SDS011;7778;48.792;9.260;2023-04-01T09:50:20;3.10;;;0.43;;
15356;SDS011;7778;48.792;9.260;2023-04-01T09:53:31;0.17;;;0.03;;
15356;SDS011;7778;48.792;9.260;2023-04-01T09:56:40;0.90;;;0.20;;
15356;SDS011;7778;48.792;9.260;2023-04-01T10:03:51;0.08;;;0.08;;
15356;SDS011;7778;48.792;9.260;2023-04-01T10:07:16;0.00;;;0.00;;
15356;SDS011;7778;48.792;9.260;2023-04-01T10:14:01;0.60;;;0.30;;
15356;SDS011;7778;48.792;9.260;2023-04-01T10:17:38;0.20;;;0.20;;
15356;SDS011;7778;48.792;9.260;2023-04-01T10:24:19;0.10;;;0.10;;
15356;SDS011;7778;48.792;9.260;2023-04-01T10:27:42;3.22;;;0.32;;
15356;SDS011;7778;48.792;9.260;2023-04-01T10:34:22;0.50;;;0.10;;
15356;SDS011;7778;48.792;9.260;2023-04-01T10:41:34;0.05;;;0.05;;
15356;SDS011;7778;48.792;9.260;2023-04-01T10:45:01;0.13;;;0.10;;
15356;SDS011;7778;48.792;9.260;2023-04-01T10:52:03;0.05;;;0.05;;
15356;SDS011;7778;48.792;9.260;2023-04-01T11:10:41;0.03;;;0.03;;
15356;SDS011;7778;48.792;9.260;2023-04-01T11:14:30;0.80;;;0.10;;
15356;SDS011;7778;48.792;9.260;2023-04-01T11:28:55;7.50;;;4.13;;
15356;SDS011;7778;48.792;9.260;2023-04-01T11:32:25;0.40;;;0.40;;
15356;SDS011;7778;48.792;9.260;2023-04-01T11:35:45;0.57;;;0.40;;
15356;SDS011;7778;48.792;9.260;2023-04-01T11:39:11;3.10;;;2.05;;
15356;SDS011;7778;48.792;9.260;2023-04-01T11:42:10;14.00;;;8.15;;
15356;SDS011;7778;48.792;9.260;2023-04-01T11:45:10;1.67;;;0.73;;
15356;SDS011;7778;48.792;9.260;2023-04-01T11:48:12;0.05;;;0.03;;
15356;SDS011;7778;48.792;9.260;2023-04-01T11:51:18;0.08;;;0.08;;
15356;SDS011;7778;48.792;9.260;2023-04-01T11:54:48;0.20;;;0.13;;
15356;SDS011;7778;48.792;9.260;2023-04-01T11:57:58;0.05;;;0.05;;
15356;SDS011;7778;48.792;9.260;2023-04-01T12:01:33;1.00;;;0.55;;
15356;SDS011;7778;48.792;9.260;2023-04-01T12:04:36;0.25;;;0.15;;
15356;SDS011;7778;48.792;9.260;2023-04-01T12:07:44;0.10;;;0.10;;
15356;SDS011;7778;48.792;9.260;2023-04-01T12:10:49;0.52;;;0.52;;
15356;SDS011;7778;48.792;9.260;2023-04-01T12:13:45;0.10;;;0.10;;
15356;SDS011;7778;48.792;9.260;2023-04-01T12:19:56;0.10;;;0.10;;
15356;SDS011;7778;48.792;9.260;2023-04-01T12:23:13;0.60;;;0.30;;
15356;SDS011;7778;48.792;9.260;2023-04-01T12:26:31;0.50;;;0.20;;
15356;SDS011;7778;48.792;9.260;2023-04-01T12:32:45;0.70;;;0.20;;
15356;SDS011;7778;48.792;9.260;2023-04-01T12:35:43;0.20;;;0.00;;
15356;SDS011;7778;48.792;9.260;2023-04-01T12:38:43;0.63;;;0.22;;
15356;SDS011;7778;48.792;9.260;2023-04-01T12:41:52;0.20;;;0.20;;
15356;SDS011;7778;48.792;9.260;2023-04-01T12:44:54;0.30;;;0.17;;
15356;SDS011;7778;48.792;9.260;2023-04-01T12:48:05;0.55;;;0.30;;
15356;SDS011;7778;48.792;9.260;2023-04-01T12:54:55;0.80;;;0.28;;
15356;SDS011;7778;48.792;9.260;2023-04-01T12:58:10;0.50;;;0.50;;
15356;SDS011;7778;48.792;9.260;2023-04-01T13:01:44;0.43;;;0.30;;
15356;SDS011;7778;48.792;9.260;2023-04-01T13:04:51;0.10;;;0.10;;
15356;SDS011;7778;48.792;9.260;2023-04-01T13:08:01;0.43;;;0.20;;
15356;SDS011;7778;48.792;9.260;2023-04-01T13:11:13;0.10;;;0.00;;
15356;SDS011;7778;48.792;9.260;2023-04-01T13:14:26;0.00;;;0.00;;
15356;SDS011;7778;48.792;9.260;2023-04-01T13:17:28;0.15;;;0.10;;
15356;SDS011;7778;48.792;9.260;2023-04-01T13:20:22;0.40;;;0.10;;
15356;SDS011;7778;48.792;9.260;2023-04-01T13:23:24;0.05;;;0.05;;
15356;SDS011;7778;48.792;9.260;2023-04-01T13:26:22;0.00;;;0.00;;
15356;SDS011;7778;48.792;9.260;2023-04-01T13:29:16;0.47;;;0.15;;
15356;SDS011;7778;48.792;9.260;2023-04-01T13:32:10;0.00;;;0.00;;
15356;SDS011;7778;48.792;9.260;2023-04-01T13:35:15;0.00;;;0.00;;
15356;SDS011;7778;48.792;9.260;2023-04-01T13:38:18;0.10;;;0.10;;
15356;SDS011;7778;48.792;9.260;2023-04-01T13:41:28;1.10;;;0.10;;
15356;SDS011;7778;48.792;9.260;2023-04-01T13:44:30;0.13;;;0.10;;
15356;SDS011;7778;48.792;9.260;2023-04-01T13:47:34;0.20;;;0.17;;
15356;SDS011;7778;48.792;9.260;2023-04-01T13:50:52;0.25;;;0.00;;
15356;SDS011;7778;48.792;9.260;2023-04-01T13:54:25;0.03;;;0.00;;
15356;SDS011;7778;48.792;9.260;2023-04-01T13:57:40;0.38;;;0.13;;
15356;SDS011;7778;48.792;9.260;2023-04-01T14:00:51;0.00;;;0.00;;
15356;SDS011;7778;48.792;9.260;2023-04-01T14:03:50;0.00;;;0.00;;
15356;SDS011;7778;48.792;9.260;2023-04-01T14:06:54;0.03;;;0.03;;
15356;SDS011;7778;48.792;9.260;2023-04-01T14:09:58;0.00;;;0.00;;
15356;SDS011;7778;48.792;9.260;2023-04-01T14:13:06;0.10;;;0.03;;
15356;SDS011;7778;48.792;9.260;2023-04-01T14:16:07;0.38;;;0.20;;
15356;SDS011;7778;48.792;9.260;2023-04-01T14:19:12;0.03;;;0.00;;
15356;SDS011;7778;48.792;9.260;2023-04-01T14:22:14;0.00;;;0.00;;
15356;SDS011;7778;48.792;9.260;2023-04-01T14:25:16;0.10;;;0.00;;
15356;SDS011;7778;48.792;9.260;2023-04-01T14:28:32;0.10;;;0.05;;
15356;SDS011;7778;48.792;9.260;2023-04-01T14:34:54;0.15;;;0.15;;
15356;SDS011;7778;48.792;9.260;2023-04-01T14:38:09;0.15;;;0.15;;
15356;SDS011;7778;48.792;9.260;2023-04-01T14:41:16;0.20;;;0.10;;
15356;SDS011;7778;48.792;9.260;2023-04-01T14:47:43;0.08;;;0.05;;
15356;SDS011;7778;48.792;9.260;2023-04-01T14:50:41;0.32;;;0.10;;
15356;SDS011;7778;48.792;9.260;2023-04-01T14:53:31;0.08;;;0.05;;
15356;SDS011;7778;48.792;9.260;2023-04-01T14:56:35;0.10;;;0.10;;
15356;SDS011;7778;48.792;9.260;2023-04-01T14:59:28;0.20;;;0.03;;
15356;SDS011;7778;48.792;9.260;2023-04-01T15:02:18;0.00;;;0.00;;
15356;SDS011;7778;48.792;9.260;2023-04-01T15:05:39;0.43;;;0.20;;
15356;SDS011;7778;48.792;9.260;2023-04-01T15:08:32;3.35;;;1.45;;
15356;SDS011;7778;48.792;9.260;2023-04-01T15:11:23;0.52;;;0.43;;
15356;SDS011;7778;48.792;9.260;2023-04-01T15:17:47;1.90;;;0.55;;
15356;SDS011;7778;48.792;9.260;2023-04-01T15:20:56;0.32;;;0.30;;
15356;SDS011;7778;48.792;9.260;2023-04-01T15:24:06;3.88;;;1.90;;
15356;SDS011;7778;48.792;9.260;2023-04-01T15:27:00;34.88;;;11.55;;
15356;SDS011;7778;48.792;9.260;2023-04-01T15:30:12;12.65;;;4.22;;
15356;SDS011;7778;48.792;9.260;2023-04-01T15:33:15;7.97;;;2.80;;
15356;SDS011;7778;48.792;9.260;2023-04-01T15:36:16;12.75;;;4.13;;
15356;SDS011;7778;48.792;9.260;2023-04-01T15:39:17;5.35;;;1.73;;
15356;SDS011;7778;48.792;9.260;2023-04-01T15:42:17;0.15;;;0.13;;
15356;SDS011;7778;48.792;9.260;2023-04-01T15:45:26;0.00;;;0.00;;
15356;SDS011;7778;48.792;9.260;2023-04-01T15:48:31;0.77;;;0.20;;
15356;SDS011;7778;48.792;9.260;2023-04-01T15:51:31;0.73;;;0.40;;
15356;SDS011;7778;48.792;9.260;2023-04-01T15:54:48;0.28;;;0.20;;
15356;SDS011;7778;48.792;9.260;2023-04-01T15:58:05;0.20;;;0.10;;
15356;SDS011;7778;48.792;9.260;2023-04-01T16:01:17;1.98;;;1.30;;
15356;SDS011;7778;48.792;9.260;2023-04-01T16:04:26;0.93;;;0.70;;
15356;SDS011;7778;48.792;9.260;2023-04-01T16:07:43;3.17;;;0.80;;
15356;SDS011;7778;48.792;9.260;2023-04-01T16:10:47;0.10;;;0.10;;
15356;SDS011;7778;48.792;9.260;2023-04-01T16:13:47;1.38;;;0.45;;
15356;SDS011;7778;48.792;9.260;2023-04-01T16:16:44;0.15;;;0.05;;
15356;SDS011;7778;48.792;9.260;2023-04-01T16:19:47;0.38;;;0.25;;
15356;SDS011;7778;48.792;9.260;2023-04-01T16:22:37;0.25;;;0.20;;
15356;SDS011;7778;48.792;9.260;2023-04-01T16:25:32;1.55;;;1.45;;
15356;SDS011;7778;48.792;9.260;2023-04-01T16:28:22;0.57;;;0.40;;
15356;SDS011;7778;48.792;9.260;2023-04-01T16:31:14;0.22;;;0.20;;
15356;SDS011;7778;48.792;9.260;2023-04-01T16:34:14;0.20;;;0.20;;
15356;SDS011;7778;48.792;9.260;2023-04-01T16:37:07;0.43;;;0.20;;
15356;SDS011;7778;48.792;9.260;2023-04-01T16:40:01;0.75;;;0.40;;
15356;SDS011;7778;48.792;9.260;2023-04-01T16:43:05;1.33;;;0.45;;
15356;SDS011;7778;48.792;9.260;2023-04-01T16:46:13;1.75;;;0.47;;
15356;SDS011;7778;48.792;9.260;2023-04-01T16:49:17;0.35;;;0.20;;
15356;SDS011;7778;48.792;9.260;2023-04-01T16:52:17;0.57;;;0.50;;
15356;SDS011;7778;48.792;9.260;2023-04-01T16:55:35;0.40;;;0.40;;
15356;SDS011;7778;48.792;9.260;2023-04-01T16:58:33;0.43;;;0.43;;
15356;SDS011;7778;48.792;9.260;2023-04-01T17:01:21;2.58;;;1.33;;
15356;SDS011;7778;48.792;9.260;2023-04-01T17:04:13;1.50;;;0.60;;
15356;SDS011;7778;48.792;9.260;2023-04-01T17:07:11;1.75;;;0.57;;
15356;SDS011;7778;48.792;9.260;2023-04-01T17:10:16;2.15;;;1.17;;
15356;SDS011;7778;48.792;9.260;2023-04-01T17:13:23;1.95;;;1.25;;
15356;SDS011;7778;48.792;9.260;2023-04-01T17:16:24;3.55;;;1.85;;
15356;SDS011;7778;48.792;9.260;2023-04-01T17:19:37;6.20;;;3.20;;
15356;SDS011;7778;48.792;9.260;2023-04-01T17:22:39;3.13;;;1.67;;
15356;SDS011;7778;48.792;9.260;2023-04-01T17:25:37;13.65;;;5.90;;
15356;SDS011;7778;48.792;9.260;2023-04-01T17:28:36;9.25;;;4.28;;
15356;SDS011;7778;48.792;9.260;2023-04-01T17:31:34;19.20;;;7.97;;
15356;SDS011;7778;48.792;9.260;2023-04-01T17:34:42;36.00;;;11.85;;
15356;SDS011;7778;48.792;9.260;2023-04-01T17:37:44;17.63;;;7.32;;
15356;SDS011;7778;48.792;9.260;2023-04-01T17:40:50;5.20;;;2.45;;
15356;SDS011;7778;48.792;9.260;2023-04-01T17:43:47;6.40;;;2.30;;
15356;SDS011;7778;48.792;9.260;2023-04-01T17:46:50;1.73;;;1.02;;
15356;SDS011;7778;48.792;9.260;2023-04-01T17:49:51;2.38;;;1.35;;
15356;SDS011;7778;48.792;9.260;2023-04-01T17:52:51;2.15;;;1.92;;
15356;SDS011;7778;48.792;9.260;2023-04-01T17:56:02;6.30;;;2.67;;
15356;SDS011;7778;48.792;9.260;2023-04-01T17:58:58;4.65;;;1.13;;
15356;SDS011;7778;48.792;9.260;2023-04-01T18:01:52;2.97;;;1.33;;
15356;SDS011;7778;48.792;9.260;2023-04-01T18:04:50;2.20;;;1.13;;
15356;SDS011;7778;48.792;9.260;2023-04-01T18:11:05;1.20;;;0.80;;
15356;SDS011;7778;48.792;9.260;2023-04-01T18:17:23;1.92;;;1.20;;
15356;SDS011;7778;48.792;9.260;2023-04-01T18:20:28;2.47;;;0.80;;
15356;SDS011;7778;48.792;9.260;2023-04-01T18:23:29;4.47;;;2.17;;
15356;SDS011;7778;48.792;9.260;2023-04-01T18:26:21;2.88;;;1.20;;
15356;SDS011;7778;48.792;9.260;2023-04-01T18:29:13;2.63;;;1.05;;
15356;SDS011;7778;48.792;9.260;2023-04-01T18:32:19;2.70;;;1.73;;
15356;SDS011;7778;48.792;9.260;2023-04-01T18:35:15;1.27;;;0.80;;
15356;SDS011;7778;48.792;9.260;2023-04-01T18:38:11;0.90;;;0.63;;
15356;SDS011;7778;48.792;9.260;2023-04-01T18:41:12;1.13;;;1.00;;
15356;SDS011;7778;48.792;9.260;2023-04-01T18:44:03;4.97;;;1.45;;
15356;SDS011;7778;48.792;9.260;2023-04-01T18:47:07;2.00;;;1.00;;
15356;SDS011;7778;48.792;9.260;2023-04-01T18:50:07;1.70;;;0.85;;
15356;SDS011;7778;48.792;9.260;2023-04-01T18:53:10;1.35;;;0.57;;
15356;SDS011;7778;48.792;9.260;2023-04-01T18:56:10;0.77;;;0.32;;
15356;SDS011;7778;48.792;9.260;2023-04-01T18:58:59;0.70;;;0.70;;
15356;SDS011;7778;48.792;9.260;2023-04-01T19:01:52;2.45;;;0.65;;
15356;SDS011;7778;48.792;9.260;2023-04-01T19:04:50;2.05;;;0.40;;
15356;SDS011;7778;48.792;9.260;2023-04-01T19:07:44;0.52;;;0.47;;
15356;SDS011;7778;48.792;9.260;2023-04-01T19:10:36;1.67;;;0.73;;
15356;SDS011;7778;48.792;9.260;2023-04-01T19:13:28;0.98;;;0.82;;
15356;SDS011;7778;48.792;9.260;2023-04-01T19:16:26;0.93;;;0.30;;
15356;SDS011;7778;48.792;9.260;2023-04-01T19:19:32;0.98;;;0.60;;
15356;SDS011;7778;48.792;9.260;2023-04-01T19:22:36;0.52;;;0.40;;
15356;SDS011;7778;48.792;9.260;2023-04-01T19:25:47;0.47;;;0.38;;
15356;SDS011;7778;48.792;9.260;2023-04-01T19:28:39;0.60;;;0.60;;
15356;SDS011;7778;48.792;9.260;2023-04-01T19:31:39;0.52;;;0.52;;
15356;SDS011;7778;48.792;9.260;2023-04-01T19:34:40;1.45;;;0.55;;
15356;SDS011;7778;48.792;9.260;2023-04-01T19:37:39;1.55;;;0.63;;
15356;SDS011;7778;48.792;9.260;2023-04-01T19:40:37;1.15;;;0.47;;
15356;SDS011;7778;48.792;9.260;2023-04-01T19:46:55;0.73;;;0.40;;
15356;SDS011;7778;48.792;9.260;2023-04-01T19:49:51;3.58;;;0.90;;